Time;durP1;ratioP1;P1;durP2;ratioP2;P2;SDS_P1;SDS_P2;PMS_P1;PMS_P2;Temp;Humidity;BMP_temperature;BMP_pressure;BME280_temperature;BME280_humidity;BME280_pressure;Samples;Min_cycle;Max_cycle;Signal;HPM_P1;HPM_P2
2022/02/02 00:03:27;;;;;;;16.20;3.70;;;;;;;3.84;100.00;98312.52;3742854;77;25723;-87
2022/02/02 00:08:35;;;;;;;20.93;4.30;;;;;;;3.91;100.00;98309.81;3660605;78;98766;-89
2022/02/02 00:18:57;;;;;;;17.00;3.42;;;;;;;3.94;100.00;98308.27;3714745;78;99206;-88
2022/02/02 00:24:01;;;;;;;14.67;3.30;;;;;;;4.00;100.00;98329.86;3621534;79;99411;-89
2022/02/02 00:29:07;;;;;;;11.53;3.20;;;;;;;4.02;100.00;98322.88;3588561;80;98782;-88
2022/02/02 00:34:05;;;;;;;19.82;2.80;;;;;;;4.04;100.00;98326.58;3597214;79;99135;-90
2022/02/02 00:39:09;;;;;;;13.55;3.37;;;;;;;4.09;100.00;98326.97;3597170;80;98519;-91
2022/02/02 00:44:10;;;;;;;9.75;2.33;;;;;;;4.15;100.00;98327.39;3623261;79;98836;-90
2022/02/02 00:49:13;;;;;;;16.47;2.70;;;;;;;4.21;100.00;98344.90;3621661;80;98832;-90
2022/02/02 00:54:22;;;;;;;13.13;2.50;;;;;;;4.16;100.00;98346.63;3575849;80;99189;-88
2022/02/02 00:59:23;;;;;;;15.43;3.00;;;;;;;4.17;100.00;98339.45;3572389;81;98771;-89
2022/02/02 01:04:25;;;;;;;16.23;3.07;;;;;;;4.18;100.00;98351.89;3724473;77;98552;-92
2022/02/02 01:09:35;;;;;;;15.10;3.00;;;;;;;4.21;100.00;98356.55;3735061;78;98560;-91
2022/02/02 01:15:27;;;;;;;18.65;3.02;;;;;;;4.22;100.00;98366.30;3721593;77;98226;-91
2022/02/02 01:19:55;;;;;;;18.37;3.80;;;;;;;4.24;100.00;98374.06;3720046;78;98743;-90
2022/02/02 01:30:09;;;;;;;16.37;4.08;;;;;;;4.28;100.00;98362.61;3732153;77;98634;-90
2022/02/02 01:35:16;;;;;;;16.40;3.30;;;;;;;4.33;100.00;98360.88;3742965;78;99197;-90
2022/02/02 01:41:06;;;;;;;12.45;3.08;;;;;;;4.37;100.00;98364.39;3737244;78;99115;-89
2022/02/02 01:45:24;;;;;;;12.20;3.47;;;;;;;4.38;100.00;98370.03;3711234;78;26112;-89
2022/02/02 01:50:24;;;;;;;19.73;3.77;;;;;;;4.37;100.00;98385.58;3732872;78;98966;-88
2022/02/02 01:55:31;;;;;;;13.90;2.70;;;;;;;4.42;100.00;98370.83;3714033;78;99035;-89
2022/02/02 02:00:28;;;;;;;22.67;4.72;;;;;;;4.44;100.00;98376.66;3719524;77;99151;-89
2022/02/02 02:05:29;;;;;;;20.13;3.23;;;;;;;4.42;100.00;98381.72;3740228;77;99047;-88
2022/02/02 02:10:30;;;;;;;19.00;3.70;;;;;;;4.45;100.00;98383.08;3701836;78;99092;-87
2022/02/02 02:15:32;;;;;;;14.60;3.37;;;;;;;4.44;100.00;98380.17;3748047;77;33095;-89
2022/02/02 02:20:33;;;;;;;17.50;3.50;;;;;;;4.42;100.00;98387.92;3742470;78;98331;-89
2022/02/02 02:25:39;;;;;;;16.93;3.73;;;;;;;4.42;100.00;98393.97;3727780;78;98922;-87
2022/02/02 02:30:47;;;;;;;16.90;2.90;;;;;;;4.45;100.00;98386.38;3726705;76;98862;-88
2022/02/02 02:57:00;;;;;;;13.10;2.20;;;;;;;4.46;100.00;98396.89;3689784;77;98619;-87
2022/02/02 03:02:43;;;;;;;10.43;2.37;;;;;;;4.42;100.00;98414.39;3735137;78;98523;-85
2022/02/02 03:49:55;;;;;;;11.00;2.67;;;;;;;4.33;100.00;98460.25;3729342;77;99029;-87
2022/02/02 03:54:58;;;;;;;10.50;2.05;;;;;;;4.29;100.00;98460.24;3725236;77;98771;-88
2022/02/02 04:05:42;;;;;;;10.75;1.60;;;;;;;4.28;100.00;98453.81;3738752;78;98506;-89
2022/02/02 04:10:16;;;;;;;14.80;2.53;;;;;;;4.25;100.00;98451.27;3707373;77;98621;-88
2022/02/02 04:16:45;;;;;;;12.65;2.55;;;;;;;4.22;100.00;98462.15;3732255;78;26377;-87
2022/02/02 05:08:28;;;;;;;19.17;4.47;;;;;;;4.31;100.00;98502.83;3741078;76;98734;-90
2022/02/02 05:19:16;;;;;;;15.65;3.20;;;;;;;4.27;100.00;98506.11;3739969;77;98630;-88
2022/02/02 05:41:06;;;;;;;16.00;2.58;;;;;;;4.24;100.00;98516.42;3739051;78;98731;-88
2022/02/02 05:55:34;;;;;;;19.45;3.55;;;;;;;4.16;100.00;98569.24;3753231;77;98408;-89
2022/02/02 06:00:37;;;;;;;18.55;3.77;;;;;;;4.15;100.00;98571.77;3739594;77;98727;-87
2022/02/02 06:05:41;;;;;;;19.77;2.95;;;;;;;4.13;100.00;98579.55;3747859;76;99265;-87
2022/02/02 06:10:43;;;;;;;24.15;4.75;;;;;;;4.11;100.00;98584.59;3710375;76;99018;-89
2022/02/02 06:15:46;;;;;;;22.67;3.80;;;;;;;4.12;100.00;98606.57;3742992;77;25677;-88
2022/02/02 06:20:52;;;;;;;15.83;4.03;;;;;;;4.12;100.00;98611.22;3743662;76;98940;-88
2022/02/02 06:25:55;;;;;;;17.92;3.75;;;;;;;4.12;100.00;98601.13;3746364;76;98501;-89
2022/02/02 06:30:59;;;;;;;17.00;2.98;;;;;;;4.12;100.00;98609.29;3717559;78;98647;-89
2022/02/02 06:36:05;;;;;;;17.98;3.25;;;;;;;4.14;100.00;98614.36;3750986;78;98679;-88
2022/02/02 06:41:10;;;;;;;14.10;3.22;;;;;;;4.14;100.00;98636.91;3734828;78;99062;-88
2022/02/02 06:46:13;;;;;;;13.93;2.83;;;;;;;4.14;100.00;98649.16;3753476;78;26303;-90
2022/02/02 06:51:26;;;;;;;15.63;3.35;;;;;;;4.14;100.00;98646.44;3745564;78;98426;-90
2022/02/02 06:56:50;;;;;;;17.17;3.25;;;;;;;4.15;100.00;98652.67;3606529;80;98518;-90
2022/02/02 07:02:14;;;;;;;27.25;11.22;;;;;;;4.14;100.00;98663.36;3577421;81;98900;-88
2022/02/02 07:07:17;;;;;;;36.77;14.05;;;;;;;4.11;100.00;98660.81;3605631;80;99275;-86
2022/02/02 07:12:20;;;;;;;36.58;13.93;;;;;;;4.10;100.00;98678.28;3650449;80;99175;-88
2022/02/02 07:23:09;;;;;;;41.00;13.60;;;;;;;4.10;100.00;98715.63;3629846;80;98910;-88
2022/02/02 07:27:57;;;;;;;46.30;17.85;;;;;;;4.11;100.00;98733.52;3608877;80;99051;-88
2022/02/02 07:33:10;;;;;;;20.90;7.80;;;;;;;4.14;100.00;98740.34;3585512;81;99201;-89
2022/02/02 07:38:14;;;;;;;21.75;6.22;;;;;;;4.17;100.00;98746.41;3579337;81;99204;-91
2022/02/02 07:43:22;;;;;;;22.50;12.47;;;;;;;4.21;100.00;98736.32;3585935;81;99282;-89
2022/02/02 07:48:23;;;;;;;41.55;16.67;;;;;;;4.23;100.00;98757.16;3578195;80;99356;-87
2022/02/02 07:53:33;;;;;;;16.20;4.25;;;;;;;4.27;100.00;98755.83;3581795;80;99464;-87
2022/02/02 07:58:27;;;;;;;16.95;3.50;;;;;;;4.31;100.00;98767.55;3576134;81;99120;-87
2022/02/02 08:03:36;;;;;;;16.13;3.83;;;;;;;4.34;100.00;98769.50;3593133;81;33086;-89
2022/02/02 08:08:34;;;;;;;27.70;7.80;;;;;;;4.37;100.00;98775.57;3575544;81;98688;-88
2022/02/02 08:13:41;;;;;;;37.23;8.30;;;;;;;4.41;100.00;98791.34;3584224;81;99139;-88
2022/02/02 08:18:44;;;;;;;24.67;6.53;;;;;;;4.44;100.00;98803.66;3578246;81;99113;-87
2022/02/02 08:23:45;;;;;;;15.18;3.12;;;;;;;4.49;100.00;98814.20;3580902;80;98376;-87
2022/02/02 08:28:47;;;;;;;13.05;3.00;;;;;;;4.50;100.00;98824.51;3574467;79;99136;-86
2022/02/02 08:33:49;;;;;;;21.07;4.57;;;;;;;4.51;100.00;98828.79;3611258;79;25743;-88
2022/02/02 08:39:12;;;;;;;15.15;5.28;;;;;;;4.54;100.00;98837.59;3605485;78;98869;-88
2022/02/02 08:44:08;;;;;;;33.02;13.72;;;;;;;4.60;100.00;98848.34;3591279;80;98895;-85
2022/02/02 08:49:08;;;;;;;21.17;8.33;;;;;;;4.63;100.00;98853.05;3608729;80;99093;-88
2022/02/02 08:54:33;;;;;;;15.15;2.95;;;;;;;4.73;100.00;98865.97;3610189;80;98974;-88
2022/02/02 09:10:07;;;;;;;8.83;2.80;;;;;;;4.88;100.00;98871.75;3612540;80;99000;-87
2022/02/02 09:21:07;;;;;;;12.13;2.35;;;;;;;4.91;100.00;98901.00;3591816;80;99001;-86
2022/02/02 09:25:41;;;;;;;10.97;2.40;;;;;;;4.88;100.00;98923.54;3579177;80;98733;-86
2022/02/02 09:36:14;;;;;;;7.78;2.27;;;;;;;4.80;100.00;98949.94;3576904;81;98509;-89
2022/02/02 09:41:30;;;;;;;11.28;4.72;;;;;;;4.76;100.00;98961.97;3581560;81;99292;-90
2022/02/02 09:46:29;;;;;;;14.98;5.95;;;;;;;4.80;100.00;98966.88;3566559;80;25625;-86
2022/02/02 09:51:35;;;;;;;11.60;4.92;;;;;;;4.83;100.00;98974.30;3564400;81;98715;-85
2022/02/02 10:01:46;;;;;;;9.10;2.80;;;;;;;4.83;100.00;98985.20;3578516;81;98673;-84
2022/02/02 10:06:59;;;;;;;9.00;2.83;;;;;;;4.86;100.00;98996.13;3592558;81;99214;-85
2022/02/02 10:12:20;;;;;;;16.73;6.75;;;;;;;4.87;100.00;98988.75;3687634;78;98891;-84
2022/02/02 10:17:04;;;;;;;18.45;6.12;;;;;;;4.81;100.00;98999.79;3708973;77;98609;-84
2022/02/02 10:22:19;;;;;;;;;;;;;;;4.76;100.00;99007.70;3728191;77;26206;-86
2022/02/02 10:27:34;;;;;;;9.90;3.50;;;;;;;4.70;100.00;99011.92;3729372;78;84600;-87
2022/02/02 10:32:39;;;;;;;9.75;2.95;;;;;;;4.61;100.00;99030.52;3720366;78;98379;-84
2022/02/02 10:37:46;;;;;;;7.35;2.55;;;;;;;4.62;100.00;99039.45;3692533;77;98698;-86
2022/02/02 10:42:44;;;;;;;6.85;2.47;;;;;;;4.61;100.00;99042.77;3723037;76;98538;-85
2022/02/02 10:47:48;;;;;;;7.90;2.70;;;;;;;4.62;100.00;99048.42;3725361;78;98853;-86
2022/02/02 11:08:47;;;;;;;8.88;3.17;;;;;;;4.78;100.00;99077.63;3687294;77;98552;-85
2022/02/02 11:13:58;;;;;;;7.63;2.53;;;;;;;4.78;100.00;99093.98;3725718;78;98414;-87
2022/02/02 11:19:02;;;;;;;8.38;3.40;;;;;;;4.82;100.00;99101.63;3726213;78;98392;-86
2022/02/02 11:24:19;;;;;;;8.80;3.33;;;;;;;4.71;100.00;99112.97;3730368;77;98523;-86
2022/02/02 11:29:43;;;;;;;9.73;3.30;;;;;;;4.72;100.00;99121.91;3718776;78;98349;-87
2022/02/02 11:34:45;;;;;;;8.60;3.00;;;;;;;4.70;100.00;99143.30;3690535;78;98878;-89
2022/02/02 11:39:57;;;;;;;6.37;2.33;;;;;;;4.62;100.00;99149.23;3725436;77;98483;-89
2022/02/02 11:45:04;;;;;;;5.85;2.15;;;;;;;4.60;100.00;99157.00;3721172;77;98636;-87
2022/02/02 11:54:59;;;;;;;6.65;3.08;;;;;;;4.55;100.00;99183.20;3726175;77;98895;-89
2022/02/02 12:00:20;;;;;;;5.80;1.95;;;;;;;4.57;100.00;99189.62;3712195;77;98549;-90
2022/02/02 12:05:53;;;;;;;6.95;3.30;;;;;;;4.51;100.00;99196.53;3735973;77;98471;-89
2022/02/02 12:10:58;;;;;;;5.05;1.90;;;;;;;4.47;100.00;99206.61;3719944;78;99091;-91
2022/02/02 12:27:50;;;;;;;4.77;1.40;;;;;;;4.42;100.00;99232.20;3727338;76;98688;-89
2022/02/02 12:48:04;;;;;;;3.00;1.30;;;;;;;4.31;100.00;99295.83;3698673;76;98547;-85
2022/02/02 12:58:36;;;;;;;8.30;2.20;;;;;;;4.29;100.00;99328.87;3722293;77;98844;-87
2022/02/02 13:03:43;;;;;;;5.00;2.22;;;;;;;4.27;100.00;99346.72;3728932;77;26085;-88
2022/02/02 13:08:51;;;;;;;6.20;2.58;;;;;;;4.25;100.00;99360.69;3714882;77;98799;-86
2022/02/02 13:13:52;;;;;;;4.75;2.00;;;;;;;4.26;100.00;99379.19;3716937;76;98265;-85
2022/02/02 13:18:57;;;;;;;7.20;2.57;;;;;;;4.27;100.00;99392.42;3711879;77;98472;-86
2022/02/02 13:24:16;;;;;;;4.37;2.10;;;;;;;4.26;100.00;99400.38;3725812;78;98459;-85
2022/02/02 13:29:34;;;;;;;5.28;2.27;;;;;;;4.27;100.00;99400.59;3725554;77;98841;-86
2022/02/02 13:34:47;;;;;;;8.23;3.98;;;;;;;4.28;100.00;99417.17;3728723;78;26035;-85
2022/02/02 13:50:58;;;;;;;6.53;2.83;;;;;;;4.26;100.00;99475.27;3729084;78;98424;-84
2022/02/02 13:55:51;;;;;;;5.12;2.45;;;;;;;4.21;100.00;99485.67;3713627;78;98522;-86
2022/02/02 14:00:58;;;;;;;8.38;3.55;;;;;;;4.12;100.00;99494.61;3554435;81;98478;-86
2022/02/02 14:11:13;;;;;;;8.90;4.67;;;;;;;3.94;100.00;99544.57;3593246;81;98834;-86
2022/02/02 14:31:58;;;;;;;4.05;2.52;;;;;;;3.61;100.00;99605.97;3606897;81;98821;-88
2022/02/02 14:37:05;;;;;;;5.50;2.77;;;;;;;3.49;100.00;99610.91;3597992;80;98884;-87
2022/02/02 14:42:13;;;;;;;7.95;4.95;;;;;;;3.45;100.00;99622.27;3582290;80;98852;-87
2022/02/02 14:47:20;;;;;;;4.47;2.00;;;;;;;3.38;100.00;99647.15;3599304;81;98951;-87
2022/02/02 14:52:45;;;;;;;6.70;2.42;;;;;;;3.31;100.00;99665.41;3582650;81;25871;-87
2022/02/02 15:29:43;;;;;;;6.58;2.40;;;;;;;3.27;100.00;99790.95;3551711;81;98889;-87
2022/02/02 15:34:47;;;;;;;5.97;2.70;;;;;;;3.26;100.00;99798.09;3589941;81;25731;-86
2022/02/02 15:39:59;;;;;;;6.53;2.47;;;;;;;3.21;100.00;99808.65;3579435;81;98699;-87
2022/02/02 15:54:40;;;;;;;6.42;2.55;;;;;;;3.20;100.00;99815.78;3588397;80;98255;-86
2022/02/02 15:56:11;;;;;;;5.42;1.98;;;;;;;3.17;100.00;99853.96;3594596;81;98866;-86
2022/02/02 16:06:00;;;;;;;14.20;5.67;;;;;;;3.14;100.00;99881.84;3596051;80;98792;-86
2022/02/02 16:16:10;;;;;;;12.53;6.77;;;;;;;3.15;100.00;99911.17;3585329;80;33046;-85
2022/02/02 16:31:57;;;;;;;13.80;6.67;;;;;;;3.11;100.00;99951.84;3568026;80;98595;-86
2022/02/02 16:36:55;;;;;;;22.45;8.13;;;;;;;3.10;100.00;99967.12;3561727;80;99047;-84
2022/02/02 16:47:14;;;;;;;20.05;7.40;;;;;;;3.10;100.00;99982.88;3590730;80;98995;-85
2022/02/02 16:52:19;;;;;;;14.73;4.90;;;;;;;3.08;100.00;99993.31;3603999;80;26073;-85
2022/02/02 16:57:49;;;;;;;13.30;5.22;;;;;;;3.05;100.00;100008.92;3600996;80;98929;-87
2022/02/02 17:24:28;;;;;;;8.40;4.17;;;;;;;2.88;100.00;100061.30;3533408;82;99414;-88
2022/02/02 17:34:48;;;;;;;9.10;3.23;;;;;;;2.78;100.00;100078.83;3500722;81;25792;-87
2022/02/02 17:40:08;;;;;;;11.90;4.90;;;;;;;2.75;100.00;100093.64;3495621;79;98867;-87
2022/02/02 18:21:40;;;;;;;8.03;3.62;;;;;;;2.15;100.00;100163.88;3564593;80;99017;-86
2022/02/02 18:26:53;;;;;;;8.10;3.77;;;;;;;2.06;100.00;100172.07;3553287;80;98537;-85
2022/02/02 18:47:46;;;;;;;13.00;5.58;;;;;;;1.91;100.00;100203.81;3509427;82;99130;-86
2022/02/02 19:03:36;;;;;;;11.88;6.35;;;;;;;1.83;100.00;100239.92;3543865;80;98561;-88
2022/02/02 19:14:53;;;;;;;12.18;4.75;;;;;;;1.80;100.00;100263.63;3536874;82;100021;-86
2022/02/02 19:40:11;;;;;;;13.45;5.20;;;;;;;1.69;100.00;100305.77;3569079;81;98622;-84
2022/02/02 20:06:35;;;;;;;13.80;4.60;;;;;;;1.59;100.00;100364.98;3615708;80;98729;-84
2022/02/02 20:11:19;;;;;;;6.35;3.52;;;;;;;1.55;100.00;100377.03;3591160;80;98771;-86
2022/02/02 20:16:18;;;;;;;7.53;3.20;;;;;;;1.49;100.00;100389.70;3611574;80;25761;-85
2022/02/02 20:21:22;;;;;;;7.47;3.27;;;;;;;1.42;100.00;100398.87;3582353;81;98484;-86
2022/02/02 20:26:24;;;;;;;6.08;2.85;;;;;;;1.34;100.00;100405.06;3612943;80;98595;-87
2022/02/02 20:31:25;;;;;;;8.18;3.30;;;;;;;1.29;100.00;100413.34;3595277;81;98701;-86
2022/02/02 20:36:26;;;;;;;7.80;3.10;;;;;;;1.28;100.00;100416.63;3571100;81;98995;-85
2022/02/02 20:41:27;;;;;;;8.50;3.47;;;;;;;1.27;100.00;100421.78;3584524;80;98903;-86
2022/02/02 21:08:03;;;;;;;9.28;3.37;;;;;;;1.02;100.00;100450.98;3600111;80;98817;-85
2022/02/02 21:17:18;;;;;;;7.85;3.25;;;;;;;0.92;100.00;100468.86;3615819;80;99133;-87
2022/02/02 21:22:12;;;;;;;21.90;7.83;;;;;;;0.89;100.00;100479.53;3620245;80;26013;-87
2022/02/02 21:32:19;;;;;;;12.03;5.07;;;;;;;0.79;100.00;100486.56;3639150;80;99211;-86
2022/02/02 21:37:20;;;;;;;9.75;4.42;;;;;;;0.73;100.00;100497.29;3636471;79;98840;-87
2022/02/02 21:42:22;;;;;;;14.87;5.40;;;;;;;0.66;100.00;100501.00;3605896;80;98682;-88
2022/02/02 21:47:23;;;;;;;12.53;5.28;;;;;;;0.58;100.00;100500.38;3576764;80;99303;-88
2022/02/02 21:52:25;;;;;;;25.90;8.67;;;;;;;0.50;100.00;100511.39;3588934;81;33014;-88
2022/02/02 21:57:28;;;;;;;11.27;5.40;;;;;;;0.37;100.00;100515.52;3601762;80;98913;-88
2022/02/02 22:02:32;;;;;;;13.60;6.87;;;;;;;0.24;100.00;100533.40;3611695;79;99071;-88
2022/02/02 22:07:32;;;;;;;11.43;4.33;;;;;;;0.16;100.00;100536.03;3614052;81;99165;-88
2022/02/02 22:12:36;;;;;;;10.45;5.20;;;;;;;0.08;100.00;100547.59;3580193;80;99218;-87
2022/02/02 22:17:38;;;;;;;9.70;4.78;;;;;;;0.03;100.00;100551.23;3603953;80;99300;-91
2022/02/02 22:22:40;;;;;;;10.43;3.35;;;;;;;-0.02;100.00;100557.29;3619614;81;25721;-89
2022/02/02 22:27:41;;;;;;;8.28;2.65;;;;;;;-0.10;100.00;100560.72;3602817;79;99190;-90
2022/02/02 22:32:42;;;;;;;9.63;2.70;;;;;;;-0.18;100.00;100570.89;3622042;79;99037;-91
2022/02/02 22:37:44;;;;;;;9.93;3.33;;;;;;;-0.29;100.00;100576.83;3610361;80;100904;-90
2022/02/02 22:42:45;;;;;;;12.77;3.77;;;;;;;-0.32;100.00;100595.23;3612008;80;99552;-90
2022/02/02 22:47:48;;;;;;;12.43;3.30;;;;;;;-0.36;100.00;100600.98;3604780;80;99024;-90
2022/02/02 22:52:53;;;;;;;10.15;3.58;;;;;;;-0.37;100.00;100609.95;3593005;80;25832;-92
2022/02/02 22:57:53;;;;;;;9.30;3.37;;;;;;;-0.42;100.00;100606.81;3534507;78;99460;-88
2022/02/02 23:02:56;;;;;;;10.27;3.33;;;;;;;-0.46;100.00;100609.86;3598656;78;99029;-89
2022/02/02 23:07:58;;;;;;;9.08;3.22;;;;;;;-0.52;100.00;100625.11;3554535;80;99668;-88
2022/02/02 23:12:59;;;;;;;9.73;3.50;;;;;;;-0.57;100.00;100630.07;3550371;79;98696;-89
2022/02/02 23:18:12;;;;;;;10.07;3.23;;;;;;;-0.59;100.00;100630.12;3627209;80;99271;-92
2022/02/02 23:23:07;;;;;;;9.15;3.35;;;;;;;-0.62;100.00;100636.13;3656954;80;25950;-91
2022/02/02 23:28:10;;;;;;;8.03;3.00;;;;;;;-0.65;100.00;100641.58;3747750;77;98784;-92
2022/02/02 23:33:11;;;;;;;12.50;4.22;;;;;;;-0.67;100.00;100638.92;3741883;77;99075;-91
2022/02/02 23:38:14;;;;;;;14.87;5.47;;;;;;;-0.71;100.00;100635.98;3726931;77;99023;-93
2022/02/02 23:43:17;;;;;;;12.65;4.25;;;;;;;-0.75;100.00;100647.16;3687804;79;98978;-91
2022/02/02 23:48:25;;;;;;;10.57;3.83;;;;;;;-0.77;100.00;100647.20;3545599;80;99123;-92
2022/02/02 23:53:29;;;;;;;10.10;3.50;;;;;;;-0.79;100.00;100655.60;3619145;80;99125;-90
2022/02/02 23:58:38;;;;;;;9.18;4.12;;;;;;;-0.83;100.00;100659.98;3730446;78;98792;-92
